Time;durP1;ratioP1;P1;durP2;ratioP2;P2;SDS_P1;SDS_P2;PMS_P1;PMS_P2;Temp;Humidity;BMP_temperature;BMP_pressure;BME280_temperature;BME280_humidity;BME280_pressure;Samples;Min_cycle;Max_cycle;Signal;HPM_P1;HPM_P2
2021/08/22 00:01:59;;;;;;;41.10;36.55;;;20.10;98.20;;;;;;4974748;28;20114;-77
2021/08/22 00:04:27;;;;;;;39.47;35.10;;;20.00;97.90;;;;;;4976062;28;20022;-78
2021/08/22 00:06:54;;;;;;;41.20;34.67;;;19.90;98.20;;;;;;4976097;28;20023;-77
2021/08/22 00:09:21;;;;;;;37.78;33.63;;;19.90;98.20;;;;;;4976053;28;20439;-78
2021/08/22 00:11:49;;;;;;;38.10;32.92;;;19.90;98.70;;;;;;4975837;28;20027;-78
2021/08/22 00:14:16;;;;;;;39.25;33.67;;;20.00;98.90;;;;;;4974328;28;20082;-78
2021/08/22 00:16:44;;;;;;;35.05;31.17;;;20.00;98.30;;;;;;4974816;28;20035;-77
2021/08/22 00:19:11;;;;;;;37.90;33.13;;;20.00;97.90;;;;;;4975838;28;20019;-77
2021/08/22 00:21:38;;;;;;;36.70;30.95;;;20.00;98.00;;;;;;4975914;28;20022;-77
2021/08/22 00:24:06;;;;;;;35.25;31.38;;;20.00;97.60;;;;;;4975667;28;20154;-78
2021/08/22 00:26:33;;;;;;;35.45;31.63;;;19.90;98.20;;;;;;4975536;28;20030;-78
2021/08/22 00:29:00;;;;;;;35.15;31.30;;;19.80;98.20;;;;;;4975609;28;20095;-77
2021/08/22 00:31:28;;;;;;;35.30;30.05;;;19.60;99.10;;;;;;4975586;28;20034;-76
2021/08/22 00:33:55;;;;;;;34.90;31.13;;;19.50;99.30;;;;;;4974217;28;20023;-78
2021/08/22 00:36:22;;;;;;;35.63;30.77;;;19.70;99.70;;;;;;4975214;28;20087;-78
2021/08/22 00:38:50;;;;;;;34.65;29.23;;;20.00;99.40;;;;;;4975479;28;20019;-78
2021/08/22 00:41:18;;;;;;;31.13;27.10;;;20.40;97.30;;;;;;4975307;28;20027;-77
2021/08/22 00:43:48;;;;;;;29.85;26.65;;;20.90;95.80;;;;;;4975356;28;20097;-78
2021/08/22 00:46:16;;;;;;;30.95;26.98;;;21.20;94.70;;;;;;4973812;28;20022;-79
2021/08/22 00:48:46;;;;;;;26.75;22.17;;;21.50;95.00;;;;;;4975290;28;20110;-78
2021/08/22 00:51:17;;;;;;;22.35;19.23;;;21.70;93.40;;;;;;4973853;28;20391;-78
2021/08/22 00:53:48;;;;;;;21.02;18.40;;;21.70;93.20;;;;;;4975112;28;20097;-78
2021/08/22 00:56:15;;;;;;;;;;;21.50;92.50;;;;;;4974257;28;20019;-78
2021/08/22 00:58:43;;;;;;;23.92;19.42;;;21.60;92.40;;;;;;4973635;28;19918;-78
2021/08/22 01:01:23;;;;;;;23.10;19.60;;;21.80;92.30;;;;;;4973645;28;20404;-78
2021/08/22 01:04:12;;;;;;;21.38;17.85;;;22.00;91.40;;;;;;4975004;28;20220;-79
2021/08/22 01:06:39;;;;;;;20.20;17.80;;;22.20;91.50;;;;;;4973555;28;20369;-78
2021/08/22 01:09:19;;;;;;;18.27;15.75;;;22.40;91.00;;;;;;4974972;28;20564;-78
2021/08/22 01:11:47;;;;;;;15.85;14.25;;;22.50;91.30;;;;;;4974686;28;20428;-78
2021/08/22 01:14:24;;;;;;;14.15;12.35;;;22.70;90.80;;;;;;4973258;28;20035;-78
2021/08/22 01:16:55;;;;;;;12.23;11.10;;;22.80;91.00;;;;;;4974708;28;20078;-77
2021/08/22 01:19:34;;;;;;;11.57;9.88;;;22.90;91.60;;;;;;4974862;28;20110;-77
2021/08/22 01:22:05;;;;;;;11.15;7.95;;;23.00;91.30;;;;;;4974713;28;20022;-77
2021/08/22 01:24:32;;;;;;;8.00;7.30;;;23.20;90.00;;;;;;4974662;28;20046;-77
2021/08/22 01:27:02;;;;;;;7.13;6.43;;;23.30;89.60;;;;;;4974234;28;20112;-78
2021/08/22 01:29:37;;;;;;;7.00;6.30;;;23.40;88.80;;;;;;4974350;28;20099;-77
2021/08/22 01:32:05;;;;;;;6.07;5.57;;;23.50;87.80;;;;;;4973534;28;20757;-78
2021/08/22 01:34:33;;;;;;;7.93;6.05;;;23.70;88.10;;;;;;4974303;28;20029;-78
2021/08/22 01:37:01;;;;;;;6.68;6.07;;;23.90;87.30;;;;;;4974146;28;20078;-78
2021/08/22 01:39:30;;;;;;;6.63;6.13;;;24.10;87.00;;;;;;4972970;28;20027;-75
2021/08/22 01:41:58;;;;;;;8.02;7.30;;;24.30;85.20;;;;;;4974410;28;20027;-77
2021/08/22 01:44:26;;;;;;;7.90;7.15;;;24.40;84.00;;;;;;4974226;28;20121;-77
2021/08/22 01:46:54;;;;;;;9.05;8.25;;;24.50;84.70;;;;;;4972997;28;20081;-77
2021/08/22 01:49:22;;;;;;;10.38;9.38;;;24.60;84.80;;;;;;4974220;28;20116;-77
2021/08/22 01:51:49;;;;;;;10.68;9.68;;;24.60;82.90;;;;;;4974161;28;20077;-77
2021/08/22 01:54:16;;;;;;;9.35;8.55;;;24.70;82.80;;;;;;4974271;28;20031;-77
2021/08/22 01:56:44;;;;;;;8.60;7.80;;;24.80;84.50;;;;;;4974146;28;20041;-77
2021/08/22 01:59:12;;;;;;;9.48;7.72;;;24.90;82.90;;;;;;4974074;28;20542;-77
2021/08/22 02:01:39;;;;;;;8.80;7.95;;;25.00;82.80;;;;;;4974080;28;20057;-76
2021/08/22 02:04:07;;;;;;;9.30;8.50;;;25.00;81.30;;;;;;4974023;28;20068;-77
2021/08/22 02:06:47;;;;;;;8.98;8.07;;;25.00;81.10;;;;;;4972714;28;20030;-77
2021/08/22 02:09:36;;;;;;;8.93;7.95;;;25.10;80.10;;;;;;4974034;28;20061;-79
2021/08/22 02:12:11;;;;;;;9.73;8.82;;;25.20;80.10;;;;;;4973922;28;20031;-77
2021/08/22 02:14:45;;;;;;;8.93;7.60;;;25.30;80.50;;;;;;4973866;28;20126;-79
2021/08/22 02:17:13;;;;;;;8.35;7.65;;;25.50;79.70;;;;;;4974050;28;20058;-78
2021/08/22 02:19:42;;;;;;;8.13;6.80;;;25.50;77.90;;;;;;4974154;28;20495;-78
2021/08/22 02:22:09;;;;;;;8.20;7.50;;;25.70;79.50;;;;;;4973878;28;20025;-78
2021/08/22 02:24:37;;;;;;;9.88;8.90;;;25.60;79.00;;;;;;4974023;28;20023;-78
2021/08/22 02:27:05;;;;;;;11.68;10.57;;;25.60;78.80;;;;;;4973904;28;20041;-78
2021/08/22 02:29:32;;;;;;;14.32;13.00;;;25.60;78.50;;;;;;4973972;28;20126;-78
2021/08/22 02:31:59;;;;;;;17.75;16.30;;;25.70;76.80;;;;;;4972393;28;20027;-76
2021/08/22 02:34:27;;;;;;;23.33;21.33;;;25.70;75.50;;;;;;4972477;28;20038;-78
2021/08/22 02:36:54;;;;;;;25.23;22.98;;;25.70;76.00;;;;;;4973744;28;20027;-77
2021/08/22 02:39:21;;;;;;;28.10;25.67;;;25.80;76.30;;;;;;4975863;28;20035;-78
2021/08/22 02:41:48;;;;;;;38.85;35.50;;;25.80;77.10;;;;;;4977730;28;20015;-78
2021/08/22 02:44:16;;;;;;;51.25;46.92;;;25.90;76.00;;;;;;4977619;28;20022;-78
2021/08/22 02:46:43;;;;;;;57.35;52.25;;;25.90;76.60;;;;;;4977465;28;20027;-78
2021/08/22 02:49:10;;;;;;;62.10;56.30;;;25.90;76.60;;;;;;4976236;28;20567;-78
2021/08/22 02:51:38;;;;;;;61.45;56.05;;;25.90;77.00;;;;;;4976246;28;20049;-78
2021/08/22 02:54:05;;;;;;;62.40;56.92;;;25.90;75.60;;;;;;4976059;28;20369;-77
2021/08/22 02:56:32;;;;;;;62.63;57.08;;;25.90;75.30;;;;;;4977349;28;20019;-79
2021/08/22 02:59:00;;;;;;;59.40;54.20;;;26.00;75.60;;;;;;4977317;28;20019;-78
2021/08/22 03:01:27;;;;;;;57.25;52.08;;;26.00;75.50;;;;;;4977320;28;20035;-77
2021/08/22 03:03:54;;;;;;;51.03;46.42;;;26.10;75.10;;;;;;4975802;28;20018;-77
2021/08/22 03:06:21;;;;;;;52.22;47.38;;;26.10;73.90;;;;;;4977202;28;20046;-79
2021/08/22 03:08:49;;;;;;;47.95;43.75;;;26.20;74.50;;;;;;4975769;28;20033;-78
2021/08/22 03:11:19;;;;;;;46.42;42.50;;;26.20;74.00;;;;;;4977104;28;20034;-78
2021/08/22 03:13:48;;;;;;;44.05;40.13;;;26.20;74.50;;;;;;4977140;28;20027;-79
2021/08/22 03:16:16;;;;;;;37.13;33.80;;;26.20;73.00;;;;;;4976781;28;20043;-77
2021/08/22 03:18:43;;;;;;;34.78;31.67;;;26.20;72.90;;;;;;4976977;28;20045;-78
2021/08/22 03:21:10;;;;;;;23.80;21.60;;;26.20;74.30;;;;;;4976761;28;20098;-78
2021/08/22 03:23:37;;;;;;;28.83;26.33;;;26.10;79.10;;;;;;4975489;28;20110;-77
2021/08/22 03:26:05;;;;;;;21.63;19.38;;;26.00;76.10;;;;;;4976805;28;20492;-76
2021/08/22 03:28:32;;;;;;;16.33;14.82;;;26.00;83.10;;;;;;4976672;28;20067;-78
2021/08/22 03:30:59;;;;;;;18.98;17.17;;;25.80;84.60;;;;;;4975286;28;20109;-77
2021/08/22 03:33:27;;;;;;;20.10;18.20;;;25.80;85.10;;;;;;4976918;28;20101;-79
2021/08/22 03:35:54;;;;;;;18.67;16.83;;;25.70;85.30;;;;;;4976612;28;20077;-78
2021/08/22 03:38:22;;;;;;;16.30;14.80;;;25.60;85.70;;;;;;4976822;28;20030;-78
2021/08/22 03:40:49;;;;;;;13.27;11.90;;;25.50;84.30;;;;;;4975358;28;20106;-78
2021/08/22 03:43:16;;;;;;;10.95;9.93;;;25.50;84.70;;;;;;4976660;28;20038;-79
2021/08/22 03:45:44;;;;;;;11.52;10.40;;;25.20;84.40;;;;;;4975156;28;20050;-78
2021/08/22 03:48:11;;;;;;;11.80;10.80;;;25.20;84.50;;;;;;4975173;28;20111;-78
2021/08/22 03:50:39;;;;;;;17.25;15.55;;;25.20;84.60;;;;;;4976201;28;20023;-78
2021/08/22 03:53:06;;;;;;;18.58;16.73;;;25.20;85.10;;;;;;4976388;28;20023;-79
2021/08/22 03:55:33;;;;;;;23.33;21.23;;;25.30;85.40;;;;;;4976358;28;20023;-78
2021/08/22 03:58:00;;;;;;;22.95;20.70;;;25.40;84.70;;;;;;4976303;28;20085;-78
2021/08/22 04:00:28;;;;;;;21.70;19.60;;;25.40;85.40;;;;;;4976567;28;20023;-78
2021/08/22 04:02:55;;;;;;;32.53;29.63;;;25.50;85.20;;;;;;4976232;28;20019;-79
2021/08/22 04:05:22;;;;;;;30.50;27.45;;;25.30;84.70;;;;;;4976129;28;20015;-78
2021/08/22 04:07:52;;;;;;;26.40;24.00;;;25.40;86.10;;;;;;4975994;28;20026;-79
2021/08/22 04:10:20;;;;;;;29.35;26.65;;;25.40;85.10;;;;;;4974489;28;20042;-77
2021/08/22 04:12:47;;;;;;;33.13;30.02;;;25.40;85.10;;;;;;4975990;28;20514;-78
2021/08/22 04:15:15;;;;;;;38.75;35.17;;;25.40;84.30;;;;;;4974377;28;20047;-78
2021/08/22 04:17:42;;;;;;;39.65;35.75;;;25.40;85.10;;;;;;4974364;28;20035;-78
2021/08/22 04:20:10;;;;;;;32.53;29.48;;;25.40;84.50;;;;;;4975919;28;20381;-79
2021/08/22 04:22:39;;;;;;;28.95;26.00;;;25.30;84.30;;;;;;4974402;28;20460;-79
2021/08/22 04:25:12;;;;;;;26.92;24.33;;;25.30;84.50;;;;;;4975775;28;20029;-78
2021/08/22 04:27:42;;;;;;;25.30;22.10;;;25.20;84.20;;;;;;4974170;28;20370;-79
2021/08/22 04:30:11;;;;;;;24.40;22.02;;;25.10;84.80;;;;;;4974313;28;20030;-78
2021/08/22 04:32:38;;;;;;;22.55;20.42;;;25.10;84.90;;;;;;4975735;28;20077;-77
2021/08/22 04:35:07;;;;;;;19.58;17.88;;;25.00;85.60;;;;;;4975511;28;20073;-76
2021/08/22 04:37:34;;;;;;;19.55;17.63;;;24.90;84.60;;;;;;4975504;28;20089;-77
2021/08/22 04:40:02;;;;;;;16.67;15.15;;;24.90;85.50;;;;;;4975462;28;20023;-78
2021/08/22 04:42:30;;;;;;;17.48;15.90;;;24.90;85.60;;;;;;4975338;28;20055;-77
2021/08/22 04:45:00;;;;;;;20.83;18.83;;;25.00;86.40;;;;;;4974050;28;20113;-79
2021/08/22 04:47:28;;;;;;;22.83;20.67;;;24.90;84.00;;;;;;4975187;28;20030;-78
2021/08/22 04:49:55;;;;;;;25.50;23.20;;;24.80;82.30;;;;;;4974331;28;20031;-77
2021/08/22 04:52:22;;;;;;;21.73;19.63;;;24.70;83.80;;;;;;4975327;28;20074;-76
2021/08/22 04:54:50;;;;;;;17.05;15.57;;;24.60;84.30;;;;;;4974013;28;20050;-81
2021/08/22 04:57:17;;;;;;;16.17;14.75;;;24.50;84.80;;;;;;4975494;28;20031;-80
2021/08/22 04:59:44;;;;;;;13.82;12.60;;;24.50;85.10;;;;;;4975243;28;20069;-79
2021/08/22 05:02:11;;;;;;;20.05;18.15;;;24.40;85.10;;;;;;4974619;28;20443;-80
2021/08/22 05:04:39;;;;;;;17.10;15.38;;;24.40;84.70;;;;;;4974938;28;20050;-80
2021/08/22 05:07:07;;;;;;;16.98;15.32;;;24.30;84.40;;;;;;4973867;28;20131;-80
2021/08/22 05:09:35;;;;;;;19.13;17.33;;;24.30;85.80;;;;;;4974971;28;20030;-80
2021/08/22 05:12:02;;;;;;;14.35;12.77;;;24.20;86.50;;;;;;4975347;28;20023;-79
2021/08/22 05:14:34;;;;;;;11.48;9.63;;;24.10;87.00;;;;;;4974796;28;20515;-78
2021/08/22 05:17:02;;;;;;;11.40;9.65;;;24.00;86.70;;;;;;4973703;28;20073;-80
2021/08/22 05:19:30;;;;;;;13.60;12.40;;;23.90;87.30;;;;;;4973487;28;20030;-77
2021/08/22 05:21:57;;;;;;;17.42;15.82;;;24.00;87.20;;;;;;4974935;28;20031;-78
2021/08/22 05:24:25;;;;;;;20.83;18.70;;;23.90;86.40;;;;;;4974787;28;20014;-79
2021/08/22 05:26:52;;;;;;;19.58;17.58;;;23.80;85.50;;;;;;4973383;28;20026;-80
2021/08/22 05:29:19;;;;;;;21.00;19.05;;;23.80;84.40;;;;;;4973193;28;20031;-80
2021/08/22 05:31:46;;;;;;;21.02;19.02;;;23.70;85.00;;;;;;4974478;28;20038;-80
2021/08/22 05:34:14;;;;;;;18.73;16.63;;;23.70;84.20;;;;;;4973165;28;20026;-80
2021/08/22 05:36:42;;;;;;;17.08;15.35;;;23.60;84.70;;;;;;4973544;28;20026;-78
2021/08/22 05:39:10;;;;;;;19.83;17.75;;;23.60;84.90;;;;;;4973153;28;20023;-80
2021/08/22 05:41:37;;;;;;;25.02;22.63;;;23.50;84.40;;;;;;4974362;28;20019;-80
2021/08/22 05:44:04;;;;;;;24.83;22.38;;;23.40;84.50;;;;;;4973222;28;20029;-81
2021/08/22 05:46:32;;;;;;;27.38;24.40;;;23.40;84.00;;;;;;4974592;28;20073;-78
2021/08/22 05:49:00;;;;;;;35.15;31.75;;;23.30;84.60;;;;;;4973088;28;20078;-79
2021/08/22 05:51:27;;;;;;;38.30;34.65;;;23.20;84.00;;;;;;4974515;28;20026;-78
2021/08/22 05:53:54;;;;;;;35.53;32.13;;;23.10;83.90;;;;;;4972850;28;20113;-77
2021/08/22 05:56:21;;;;;;;41.67;37.60;;;23.00;83.70;;;;;;4973043;28;20027;-78
2021/08/22 05:58:49;;;;;;;43.08;38.85;;;22.90;83.70;;;;;;4974335;28;20039;-78
2021/08/22 06:01:16;;;;;;;39.83;35.75;;;22.90;85.00;;;;;;4974259;28;20421;-79
2021/08/22 06:03:44;;;;;;;38.88;34.97;;;22.80;86.10;;;;;;4972802;28;20019;-80
2021/08/22 06:06:12;;;;;;;35.40;31.73;;;22.70;86.10;;;;;;4974028;28;20034;-79
2021/08/22 06:08:39;;;;;;;34.90;31.50;;;22.60;85.90;;;;;;4972734;28;20031;-79
2021/08/22 06:11:07;;;;;;;22.67;20.27;;;22.50;86.70;;;;;;4972707;28;20464;-79
2021/08/22 06:13:34;;;;;;;25.85;23.15;;;22.50;86.80;;;;;;4974999;28;20476;-78
2021/08/22 06:16:02;;;;;;;20.65;18.35;;;22.40;87.60;;;;;;4976527;28;20050;-78
2021/08/22 06:18:29;;;;;;;21.52;19.33;;;22.30;87.00;;;;;;4976657;28;20027;-79
2021/08/22 06:20:57;;;;;;;26.63;24.05;;;22.20;87.10;;;;;;4976852;28;20061;-79
2021/08/22 06:23:24;;;;;;;25.80;23.20;;;22.10;88.20;;;;;;4978287;28;20022;-77
2021/08/22 06:25:52;;;;;;;27.90;23.45;;;21.90;88.50;;;;;;4978063;28;20023;-78
2021/08/22 06:28:19;;;;;;;22.70;19.58;;;21.70;89.40;;;;;;4978119;28;20110;-79
2021/08/22 06:30:46;;;;;;;19.90;17.65;;;21.60;89.80;;;;;;4977830;28;20050;-79
2021/08/22 06:33:13;;;;;;;22.13;19.80;;;21.40;90.10;;;;;;4976397;28;20023;-78
2021/08/22 06:35:41;;;;;;;29.92;26.67;;;21.30;90.30;;;;;;4977787;28;20039;-79
2021/08/22 06:38:08;;;;;;;32.03;28.85;;;21.20;90.90;;;;;;4976380;28;20027;-80
2021/08/22 06:40:35;;;;;;;34.05;30.45;;;21.20;91.20;;;;;;4977808;28;20384;-79
2021/08/22 06:43:03;;;;;;;33.67;30.20;;;21.10;91.60;;;;;;4977589;28;20102;-77
2021/08/22 06:45:30;;;;;;;26.92;22.45;;;21.00;91.90;;;;;;4977580;28;20181;-81
2021/08/22 06:47:57;;;;;;;25.60;22.90;;;20.90;92.20;;;;;;4976356;28;20027;-79
2021/08/22 06:50:25;;;;;;;24.98;22.48;;;20.90;92.50;;;;;;4977432;28;20038;-80
2021/08/22 06:52:53;;;;;;;22.05;19.80;;;20.80;92.80;;;;;;4977294;28;20026;-76
2021/08/22 06:55:20;;;;;;;21.83;19.52;;;20.70;93.20;;;;;;4975922;28;20158;-78
2021/08/22 06:57:47;;;;;;;22.98;18.67;;;20.60;93.60;;;;;;4977374;28;20443;-80
2021/08/22 07:00:15;;;;;;;21.45;15.88;;;20.50;94.10;;;;;;4977368;28;20019;-77
2021/08/22 07:02:45;;;;;;;15.85;13.10;;;20.40;94.60;;;;;;4977277;28;20363;-77
2021/08/22 07:05:13;;;;;;;15.07;12.57;;;20.20;95.00;;;;;;4975691;28;20026;-79
2021/08/22 07:07:41;;;;;;;15.10;11.35;;;20.20;95.50;;;;;;4976980;28;20037;-78
2021/08/22 07:10:09;;;;;;;13.15;10.15;;;20.10;95.90;;;;;;4975649;28;20027;-77
2021/08/22 07:12:37;;;;;;;14.05;10.07;;;20.00;96.20;;;;;;4977189;28;20492;-77
2021/08/22 07:15:05;;;;;;;15.57;10.50;;;19.90;96.50;;;;;;4977239;28;20518;-78
2021/08/22 07:17:32;;;;;;;12.38;9.68;;;19.80;96.70;;;;;;4975859;28;20082;-80
2021/08/22 07:20:00;;;;;;;13.98;9.38;;;19.70;96.90;;;;;;4975848;28;20029;-79
2021/08/22 07:22:27;;;;;;;13.05;8.68;;;19.60;97.20;;;;;;4977199;28;20019;-79
2021/08/22 07:24:56;;;;;;;16.08;9.10;;;19.50;97.20;;;;;;4976434;28;20022;-80
2021/08/22 07:27:24;;;;;;;12.60;8.38;;;19.40;97.50;;;;;;4975739;28;20031;-79
2021/08/22 07:29:51;;;;;;;12.18;8.23;;;19.30;97.70;;;;;;4975526;28;20041;-77
2021/08/22 07:32:18;;;;;;;11.75;7.72;;;19.10;98.10;;;;;;4976745;28;20110;-79
2021/08/22 07:34:46;;;;;;;12.45;7.85;;;19.10;98.40;;;;;;4976897;28;20027;-77
2021/08/22 07:37:13;;;;;;;9.73;7.05;;;18.90;98.80;;;;;;4976379;28;20110;-77
2021/08/22 07:39:40;;;;;;;10.45;7.05;;;18.90;98.80;;;;;;4975148;28;20174;-76
2021/08/22 07:42:08;;;;;;;9.77;6.35;;;18.80;98.80;;;;;;4976553;28;20030;-78
2021/08/22 07:44:35;;;;;;;10.80;6.68;;;18.80;98.50;;;;;;4976374;28;20126;-76
2021/08/22 07:47:03;;;;;;;8.07;5.93;;;18.80;98.70;;;;;;4976354;28;20392;-76
2021/08/22 07:49:30;;;;;;;8.73;6.15;;;18.70;98.90;;;;;;4976267;28;20479;-76
2021/08/22 07:51:57;;;;;;;10.23;6.18;;;18.60;98.90;;;;;;4976235;28;20023;-76
2021/08/22 07:54:25;;;;;;;7.70;5.43;;;18.70;99.60;;;;;;4976240;28;20027;-76
2021/08/22 07:56:52;;;;;;;10.30;5.80;;;18.70;98.70;;;;;;4974632;28;20022;-76
2021/08/22 07:59:19;;;;;;;5.32;4.80;;;18.60;98.60;;;;;;4976337;28;20019;-76
2021/08/22 08:01:47;;;;;;;8.00;5.43;;;18.70;98.30;;;;;;4974915;28;20503;-79
2021/08/22 08:04:14;;;;;;;7.55;5.07;;;18.60;98.30;;;;;;4976189;28;20025;-78
2021/08/22 08:06:41;;;;;;;5.82;4.78;;;18.50;98.50;;;;;;4976124;28;20035;-79
2021/08/22 08:09:09;;;;;;;7.32;4.63;;;18.50;98.60;;;;;;4976141;28;20027;-80
2021/08/22 08:11:36;;;;;;;5.10;4.40;;;18.50;98.30;;;;;;4976106;28;20023;-78
2021/08/22 08:14:04;;;;;;;6.13;5.05;;;18.40;98.30;;;;;;4974905;28;20026;-79
2021/08/22 08:16:32;;;;;;;5.97;4.50;;;18.40;98.10;;;;;;4975941;28;20129;-80
2021/08/22 08:18:59;;;;;;;5.50;4.10;;;18.40;97.80;;;;;;4976105;28;20089;-79
2021/08/22 08:21:27;;;;;;;4.70;3.97;;;18.40;97.60;;;;;;4975868;28;20365;-77
2021/08/22 08:23:55;;;;;;;6.90;4.40;;;18.50;97.30;;;;;;4975827;28;20026;-77
2021/08/22 08:26:22;;;;;;;4.68;4.18;;;18.50;97.20;;;;;;4974278;28;20027;-78
2021/08/22 08:28:50;;;;;;;6.03;3.97;;;18.50;97.00;;;;;;4976137;28;20031;-79
2021/08/22 08:31:17;;;;;;;6.75;3.80;;;18.50;96.70;;;;;;4975808;28;20034;-79
2021/08/22 08:33:44;;;;;;;5.82;4.43;;;18.60;96.60;;;;;;4975556;28;20365;-78
2021/08/22 08:36:12;;;;;;;5.72;4.70;;;18.70;96.30;;;;;;4974788;28;20023;-80
2021/08/22 08:38:40;;;;;;;6.22;4.97;;;18.70;96.20;;;;;;4975774;28;20023;-78
2021/08/22 08:41:11;;;;;;;6.85;5.20;;;18.70;96.20;;;;;;4975710;28;20031;-79
2021/08/22 08:43:39;;;;;;;5.53;5.00;;;18.80;96.00;;;;;;4975812;28;20106;-79
2021/08/22 08:46:21;;;;;;;9.05;6.13;;;18.70;96.10;;;;;;4975628;28;20023;-79
2021/08/22 08:48:48;;;;;;;6.40;5.28;;;18.80;96.20;;;;;;4975558;28;20019;-78
2021/08/22 08:51:30;;;;;;;8.18;5.32;;;18.70;96.00;;;;;;4975531;28;20480;-77
2021/08/22 08:54:12;;;;;;;5.47;4.82;;;18.70;95.80;;;;;;4975342;28;20023;-78
2021/08/22 08:56:49;;;;;;;6.78;5.13;;;18.90;95.40;;;;;;4975618;28;20030;-78
2021/08/22 08:59:16;;;;;;;7.15;5.15;;;18.90;95.40;;;;;;4975377;28;20029;-80
2021/08/22 09:01:43;;;;;;;7.05;5.35;;;19.00;95.10;;;;;;4973798;28;20038;-78
2021/08/22 09:04:30;;;;;;;6.25;5.00;;;18.90;95.20;;;;;;4975173;28;20023;-78
2021/08/22 09:07:34;;;;;;;5.47;4.60;;;18.90;95.40;;;;;;4974864;28;20027;-80
2021/08/22 09:10:34;;;;;;;5.55;5.00;;;18.90;95.30;;;;;;4973761;28;20074;-79
2021/08/22 09:13:39;;;;;;;5.28;4.68;;;18.80;95.50;;;;;;4974721;28;20488;-77
2021/08/22 09:16:40;;;;;;;5.65;4.90;;;18.80;95.40;;;;;;4974835;28;20043;-78
2021/08/22 09:19:49;;;;;;;6.35;5.10;;;18.70;95.50;;;;;;4973394;28;20049;-77
2021/08/22 09:22:52;;;;;;;12.38;11.10;;;18.70;95.50;;;;;;4941386;28;20035;-77
2021/08/22 09:25:56;;;;;;;24.20;21.63;;;18.70;95.50;;;;;;4973206;28;20022;-77
2021/08/22 09:29:02;;;;;;;33.58;30.25;;;18.60;95.60;;;;;;4973211;28;20034;-77
2021/08/22 09:31:47;;;;;;;8.25;7.45;;;18.60;95.90;;;;;;4973405;28;20023;-74
2021/08/22 09:34:36;;;;;;;16.08;14.68;;;18.60;95.50;;;;;;4973126;28;20022;-77
2021/08/22 09:37:12;;;;;;;413.13;371.15;;;18.60;95.40;;;;;;4973372;28;20027;-78
2021/08/22 09:40:15;;;;;;;40.22;36.38;;;18.70;95.40;;;;;;4974647;28;20015;-79
2021/08/22 09:43:19;;;;;;;10.52;9.52;;;18.50;95.50;;;;;;4973380;28;20023;-78
2021/08/22 09:46:01;;;;;;;5.80;5.10;;;18.40;95.60;;;;;;4974426;28;20019;-77
2021/08/22 09:49:05;;;;;;;8.85;7.45;;;18.50;95.40;;;;;;4974097;28;20403;-76
2021/08/22 09:52:09;;;;;;;6.50;5.95;;;18.50;95.80;;;;;;4974254;28;20046;-78
2021/08/22 09:54:45;;;;;;;7.22;6.57;;;18.40;95.60;;;;;;4974276;28;20027;-78
2021/08/22 09:57:33;;;;;;;10.00;9.10;;;18.30;95.80;;;;;;4972602;28;20487;-77
2021/08/22 10:00:24;;;;;;;6.88;6.18;;;18.20;96.10;;;;;;4973067;28;20027;-76
2021/08/22 10:03:28;;;;;;;7.72;7.00;;;18.10;96.20;;;;;;4976544;28;20034;-76
2021/08/22 10:06:32;;;;;;;7.88;6.20;;;18.10;96.10;;;;;;4973910;28;20432;-78
2021/08/22 10:09:11;;;;;;;7.72;6.32;;;18.20;96.10;;;;;;4974631;28;20050;-77
2021/08/22 10:11:47;;;;;;;14.70;12.60;;;18.30;95.90;;;;;;4973067;28;20031;-77
2021/08/22 10:14:15;;;;;;;6.47;5.50;;;18.30;95.80;;;;;;4974436;28;20384;-77
2021/08/22 10:16:42;;;;;;;9.50;8.23;;;18.20;95.80;;;;;;4974684;28;20031;-77
2021/08/22 10:19:10;;;;;;;7.97;6.75;;;18.20;96.00;;;;;;4973882;28;20027;-78
2021/08/22 10:21:38;;;;;;;7.00;6.30;;;18.10;96.10;;;;;;4973856;28;20498;-77
2021/08/22 10:24:38;;;;;;;6.75;6.15;;;18.10;96.20;;;;;;4974120;28;20113;-77
2021/08/22 10:27:06;;;;;;;7.50;6.15;;;18.10;96.20;;;;;;4974229;28;20027;-79
2021/08/22 10:29:49;;;;;;;8.50;7.00;;;18.10;96.30;;;;;;4972345;28;20109;-78
2021/08/22 10:32:17;;;;;;;7.85;7.13;;;18.10;96.20;;;;;;4972364;28;20027;-79
2021/08/22 10:35:04;;;;;;;10.38;9.32;;;18.00;96.40;;;;;;4972223;28;20073;-78
2021/08/22 10:37:35;;;;;;;7.93;7.13;;;18.00;96.60;;;;;;4973684;28;20094;-78
2021/08/22 10:40:20;;;;;;;;;;;18.00;96.70;;;;;;4974141;28;20036;-77
2021/08/22 10:42:48;;;;;;;7.10;6.00;;;18.00;96.70;;;;;;4973752;28;19906;-77
2021/08/22 10:45:53;;;;;;;7.63;6.47;;;17.90;96.70;;;;;;4972335;28;20496;-78
2021/08/22 10:48:23;;;;;;;6.93;5.78;;;18.10;96.60;;;;;;4972498;28;20085;-78
2021/08/22 10:51:04;;;;;;;7.15;6.47;;;18.10;96.40;;;;;;4973681;28;20027;-79
2021/08/22 10:53:36;;;;;;;11.82;10.80;;;18.20;96.30;;;;;;4972175;28;20074;-79
2021/08/22 10:56:25;;;;;;;8.55;7.85;;;18.20;96.20;;;;;;4972140;28;20046;-78
2021/08/22 10:58:58;;;;;;;7.47;6.78;;;18.20;96.20;;;;;;4973528;28;20428;-79
2021/08/22 11:01:33;;;;;;;7.55;6.90;;;18.10;96.40;;;;;;4977075;28;20093;-77
2021/08/22 11:04:11;;;;;;;6.15;5.57;;;18.00;96.50;;;;;;4976965;28;20019;-77
2021/08/22 11:07:01;;;;;;;6.97;6.28;;;17.90;96.50;;;;;;4977183;28;20587;-78
2021/08/22 11:09:42;;;;;;;15.48;13.63;;;18.00;96.50;;;;;;4977154;28;20492;-81
2021/08/22 11:12:32;;;;;;;11.10;7.95;;;17.90;96.60;;;;;;4977109;28;20034;-78
2021/08/22 11:15:02;;;;;;;9.60;8.50;;;17.80;96.70;;;;;;4976699;28;20070;-78
2021/08/22 11:17:29;;;;;;;9.47;8.53;;;17.70;97.20;;;;;;4976858;28;20038;-79
2021/08/22 11:20:18;;;;;;;8.95;8.05;;;17.60;97.10;;;;;;4975546;28;20029;-78
2021/08/22 11:22:47;;;;;;;10.10;8.48;;;17.60;97.10;;;;;;4977145;28;20047;-77
2021/08/22 11:25:15;;;;;;;8.98;8.07;;;17.60;97.30;;;;;;4975417;28;20033;-77
2021/08/22 11:27:42;;;;;;;9.13;8.23;;;17.50;97.30;;;;;;4975400;28;20034;-76
2021/08/22 11:30:12;;;;;;;11.10;9.50;;;17.50;97.30;;;;;;4976681;28;20084;-77
2021/08/22 11:32:49;;;;;;;9.35;8.43;;;17.50;97.60;;;;;;4976520;28;20029;-76
2021/08/22 11:35:24;;;;;;;17.73;15.93;;;17.50;97.40;;;;;;4976561;28;20037;-76
2021/08/22 11:37:53;;;;;;;10.60;9.50;;;17.70;97.20;;;;;;4975049;28;20034;-75
2021/08/22 11:40:24;;;;;;;9.75;8.70;;;17.80;97.00;;;;;;4975140;28;20039;-75
2021/08/22 11:42:51;;;;;;;;;;;17.80;96.90;;;;;;4976894;28;20031;-76
2021/08/22 11:45:23;;;;;;;8.48;7.30;;;17.90;96.90;;;;;;4976400;28;19913;-76
2021/08/22 11:47:51;;;;;;;8.35;7.32;;;17.90;96.80;;;;;;4974994;28;20468;-76
2021/08/22 11:50:23;;;;;;;10.18;9.18;;;17.90;96.90;;;;;;4975066;28;20504;-75
2021/08/22 11:52:53;;;;;;;9.15;8.25;;;17.90;97.10;;;;;;4976193;28;20503;-76
2021/08/22 11:55:22;;;;;;;8.07;7.22;;;17.80;97.10;;;;;;4974928;28;20180;-76
2021/08/22 11:57:50;;;;;;;9.88;8.05;;;17.80;97.10;;;;;;4976160;28;20419;-76
2021/08/22 12:00:21;;;;;;;8.57;7.78;;;17.80;97.30;;;;;;4976165;28;20383;-76
2021/08/22 12:03:03;;;;;;;9.23;7.47;;;17.70;97.30;;;;;;4975890;28;20019;-76
2021/08/22 12:05:34;;;;;;;8.50;6.65;;;17.70;97.40;;;;;;4974781;28;20019;-75
2021/08/22 12:08:09;;;;;;;8.15;7.35;;;17.60;97.20;;;;;;4974596;28;20117;-76
2021/08/22 12:10:41;;;;;;;7.72;6.97;;;17.60;97.40;;;;;;4975928;28;20429;-75
2021/08/22 12:13:16;;;;;;;12.93;10.05;;;17.60;97.40;;;;;;4976232;28;20026;-75
2021/08/22 12:15:43;;;;;;;11.23;8.73;;;17.50;97.50;;;;;;4974462;28;20494;-75
2021/08/22 12:18:21;;;;;;;8.57;7.25;;;17.40;97.60;;;;;;4974452;28;20125;-75
2021/08/22 12:21:15;;;;;;;8.95;7.68;;;17.30;97.80;;;;;;4975844;28;20023;-76
2021/08/22 12:23:53;;;;;;;8.80;7.57;;;17.30;98.00;;;;;;4967105;28;20034;-76
2021/08/22 12:26:30;;;;;;;8.55;7.75;;;17.10;98.20;;;;;;4975502;28;20073;-76
2021/08/22 12:28:59;;;;;;;7.82;7.13;;;17.00;98.50;;;;;;4975723;28;20415;-76
2021/08/22 12:31:38;;;;;;;9.15;8.25;;;16.90;98.40;;;;;;4974262;28;20031;-76
2021/08/22 12:34:15;;;;;;;8.27;7.10;;;16.90;98.50;;;;;;4974226;28;20031;-76
2021/08/22 12:36:44;;;;;;;8.25;7.40;;;16.80;98.50;;;;;;4975480;28;20019;-75
2021/08/22 12:39:14;;;;;;;8.45;7.65;;;16.70;98.80;;;;;;4975408;28;20547;-75
2021/08/22 12:41:42;;;;;;;8.32;7.25;;;16.70;99.20;;;;;;4975316;28;20023;-75
2021/08/22 12:44:18;;;;;;;8.90;8.10;;;16.60;99.50;;;;;;4975500;28;20027;-76
2021/08/22 12:46:51;;;;;;;8.55;7.72;;;16.50;99.70;;;;;;4975246;28;20067;-76
2021/08/22 12:49:19;;;;;;;8.18;7.40;;;16.50;99.90;;;;;;4975159;28;20033;-75
2021/08/22 12:51:57;;;;;;;8.77;7.88;;;16.40;99.90;;;;;;4973808;28;20495;-75
2021/08/22 12:54:27;;;;;;;8.43;7.57;;;16.30;99.90;;;;;;4973679;28;20027;-74
2021/08/22 12:56:55;;;;;;;8.63;7.83;;;16.20;99.90;;;;;;4973669;28;20506;-75
2021/08/22 12:59:23;;;;;;;8.50;7.80;;;16.20;99.90;;;;;;4974941;28;20388;-75